Time;durP1;ratioP1;P1;durP2;ratioP2;P2;SDS_P1;SDS_P2;PMS_P1;PMS_P2;Temp;Humidity;BMP_temperature;BMP_pressure;BME280_temperature;BME280_humidity;BME280_pressure;Samples;Min_cycle;Max_cycle;Signal;HPM_P1;HPM_P2
2024/01/03 00:01:42;;;;;;;13.30;3.00;;;;;;;11.68;64.28;98745.75;4992388;28;20057;-66
2024/01/03 00:04:11;;;;;;;13.98;2.92;;;;;;;11.62;64.02;98750.38;4994266;28;20135;-66
2024/01/03 00:06:40;;;;;;;16.63;3.00;;;;;;;11.63;64.32;98753.88;5051433;28;20041;-66
2024/01/03 00:09:10;;;;;;;13.60;3.08;;;;;;;11.61;64.37;98756.03;5052947;28;20069;-66
2024/01/03 00:11:38;;;;;;;18.83;3.35;;;;;;;11.61;64.38;98770.28;5043579;28;20046;-66
2024/01/03 00:14:29;;;;;;;18.55;3.40;;;;;;;11.60;64.39;98759.81;5043188;28;20136;-66
2024/01/03 00:17:01;;;;;;;16.98;3.42;;;;;;;11.74;64.83;98768.84;5038867;28;20080;-65
2024/01/03 00:19:28;;;;;;;14.88;3.70;;;;;;;11.64;64.90;98782.38;5058924;28;20127;-65
2024/01/03 00:21:56;;;;;;;20.92;4.72;;;;;;;11.60;64.88;98774.06;5045799;28;20052;-65
2024/01/03 00:24:27;;;;;;;13.73;3.45;;;;;;;11.59;65.66;98793.97;5038045;28;20053;-65
2024/01/03 00:26:55;;;;;;;13.00;2.60;;;;;;;11.58;65.45;98797.75;5049485;28;20079;-65
2024/01/03 00:30:02;;;;;;;15.25;3.75;;;;;;;11.60;65.15;98774.06;5059497;28;20045;-65
2024/01/03 00:32:34;;;;;;;15.80;3.75;;;;;;;11.57;65.35;98793.44;5053785;28;20338;-66
2024/01/03 00:35:11;;;;;;;13.13;2.60;;;;;;;11.55;65.41;98813.63;5100484;27;20074;-66
2024/01/03 00:37:40;;;;;;;12.52;3.38;;;;;;;11.52;65.36;98815.00;5147030;27;20043;-66
2024/01/03 00:40:50;;;;;;;14.82;2.72;;;;;;;11.50;65.96;98821.75;5147343;27;20046;-65
2024/01/03 00:43:17;;;;;;;13.85;3.42;;;;;;;11.48;66.03;98818.53;5129180;27;20039;-66
2024/01/03 00:45:46;;;;;;;18.17;4.20;;;;;;;11.47;66.58;98815.03;5143075;27;20051;-66
2024/01/03 00:48:15;;;;;;;24.40;3.85;;;;;;;11.47;66.46;98824.97;5135168;27;20046;-66
2024/01/03 00:50:43;;;;;;;23.75;4.47;;;;;;;11.46;66.83;98812.63;5143841;27;20065;-66
2024/01/03 00:53:12;;;;;;;15.05;4.05;;;;;;;11.46;67.05;98810.72;5120370;27;20051;-66
2024/01/03 00:55:41;;;;;;;17.45;3.72;;;;;;;11.46;67.32;98816.09;5137772;27;20175;-66
2024/01/03 00:58:11;;;;;;;15.38;3.40;;;;;;;11.45;67.19;98819.88;5142396;27;20081;-66
2024/01/03 01:00:39;;;;;;;24.13;5.53;;;;;;;11.45;67.49;98827.94;5132536;27;20048;-66
2024/01/03 01:03:07;;;;;;;16.73;3.03;;;;;;;11.46;67.61;98820.69;5144141;27;20138;-66
2024/01/03 01:05:36;;;;;;;19.13;3.53;;;;;;;11.44;67.77;98817.47;5105867;27;20072;-66
2024/01/03 01:08:05;;;;;;;22.90;3.90;;;;;;;11.45;67.43;98830.63;5090775;27;20065;-66
2024/01/03 01:10:33;;;;;;;21.63;4.03;;;;;;;11.44;67.65;98820.97;5133145;27;20086;-66
2024/01/03 01:13:01;;;;;;;18.50;3.83;;;;;;;11.45;68.11;98822.56;5145864;27;20068;-66
2024/01/03 01:15:29;;;;;;;16.08;3.90;;;;;;;11.44;67.98;98828.22;5107072;27;20052;-66
2024/01/03 01:17:57;;;;;;;17.67;3.88;;;;;;;11.41;68.08;98816.94;5137805;27;20099;-66
2024/01/03 01:20:25;;;;;;;19.45;3.97;;;;;;;11.41;68.36;98819.63;5149895;27;20064;-66
2024/01/03 01:22:54;;;;;;;19.63;5.78;;;;;;;11.42;68.07;98825.81;5117734;27;20107;-65
2024/01/03 01:25:22;;;;;;;25.85;4.38;;;;;;;11.42;68.11;98833.88;5121261;27;20055;-66
2024/01/03 01:27:50;;;;;;;18.02;4.53;;;;;;;11.41;67.97;98835.75;5143782;27;20047;-66
2024/01/03 01:30:17;;;;;;;20.80;3.97;;;;;;;11.41;68.42;98834.97;5125025;27;20047;-66
2024/01/03 01:32:45;;;;;;;23.08;4.57;;;;;;;11.43;68.26;98830.09;5146203;27;20051;-66
2024/01/03 01:35:14;;;;;;;19.33;3.88;;;;;;;11.44;68.27;98842.47;5147928;27;20446;-66
2024/01/03 01:37:41;;;;;;;21.25;4.35;;;;;;;11.43;68.00;98846.25;5149974;27;20373;-66
2024/01/03 01:40:12;;;;;;;17.80;3.72;;;;;;;11.42;68.23;98833.88;5161033;27;20043;-66
2024/01/03 01:42:42;;;;;;;14.82;4.05;;;;;;;11.41;68.30;98825.00;5152196;27;20038;-66
2024/01/03 01:45:10;;;;;;;20.38;3.53;;;;;;;11.43;68.01;98840.88;5150467;27;20039;-66
2024/01/03 01:47:39;;;;;;;23.42;3.63;;;;;;;11.44;68.05;98836.28;5147911;27;20049;-66
2024/01/03 01:50:09;;;;;;;22.67;5.45;;;;;;;11.41;68.00;98838.47;5141401;27;20061;-66
2024/01/03 01:52:38;;;;;;;21.20;4.30;;;;;;;11.41;68.38;98851.09;5150652;27;20042;-65
2024/01/03 01:55:07;;;;;;;22.20;4.40;;;;;;;11.43;68.35;98861.59;5146930;27;20051;-65
2024/01/03 01:57:40;;;;;;;21.05;4.45;;;;;;;11.40;68.75;98861.06;5160434;27;20043;-65
2024/01/03 02:00:10;;;;;;;22.55;4.72;;;;;;;11.40;69.11;98876.38;5144629;27;20492;-65
2024/01/03 02:02:38;;;;;;;22.85;5.22;;;;;;;11.35;69.10;98889.84;5154116;27;20063;-65
2024/01/03 02:05:06;;;;;;;15.88;3.20;;;;;;;11.36;69.50;98891.47;5133442;27;20059;-65
2024/01/03 02:07:36;;;;;;;27.50;4.10;;;;;;;11.36;69.70;98891.47;5137539;27;20053;-65
2024/01/03 02:10:04;;;;;;;14.02;3.22;;;;;;;11.30;69.69;98887.97;5144334;27;20280;-65
2024/01/03 02:12:31;;;;;;;20.73;3.90;;;;;;;11.34;70.06;98899.00;5144567;27;20104;-65
2024/01/03 02:15:01;;;;;;;17.63;4.53;;;;;;;11.33;69.95;98894.69;5152178;27;20054;-65
2024/01/03 02:17:29;;;;;;;20.65;4.22;;;;;;;11.34;69.99;98893.63;5134477;27;20039;-65
2024/01/03 02:20:00;;;;;;;21.70;3.80;;;;;;;11.34;70.02;98890.94;5144048;27;20055;-66
2024/01/03 02:22:30;;;;;;;20.33;4.35;;;;;;;11.34;70.13;98907.06;5127367;27;20043;-66
2024/01/03 02:24:58;;;;;;;16.42;4.72;;;;;;;11.34;70.18;98897.13;5148209;27;20051;-66
2024/01/03 02:27:26;;;;;;;14.75;3.90;;;;;;;11.32;70.25;98899.28;5142263;27;20055;-66
2024/01/03 02:29:54;;;;;;;17.55;4.28;;;;;;;11.30;69.99;98895.25;5161451;27;20047;-66
2024/01/03 02:32:22;;;;;;;21.58;3.80;;;;;;;11.30;70.33;98896.06;5140874;27;20043;-66
2024/01/03 02:34:49;;;;;;;21.50;3.78;;;;;;;11.30;70.13;98906.81;5138299;27;20047;-66
2024/01/03 02:37:22;;;;;;;18.50;3.60;;;;;;;11.29;70.12;98910.56;5144293;27;20058;-66
2024/01/03 02:39:51;;;;;;;16.98;3.33;;;;;;;11.27;69.86;98912.72;5142653;27;20427;-66
2024/01/03 02:42:19;;;;;;;17.17;3.65;;;;;;;11.26;70.12;98900.38;5140413;27;20080;-66
2024/01/03 02:44:47;;;;;;;14.88;3.22;;;;;;;11.29;70.07;98893.63;5155454;27;20411;-66
2024/01/03 02:47:14;;;;;;;16.17;3.45;;;;;;;11.29;69.66;98913.25;5141964;27;20071;-66
2024/01/03 02:49:42;;;;;;;19.73;3.92;;;;;;;11.27;70.13;98915.44;5144318;27;20053;-66
2024/01/03 02:52:10;;;;;;;17.25;3.30;;;;;;;11.24;70.14;98918.66;5137049;27;20051;-66
2024/01/03 02:54:38;;;;;;;19.45;3.40;;;;;;;11.24;70.01;98920.53;5131222;27;20054;-66
2024/01/03 02:57:07;;;;;;;14.95;3.95;;;;;;;11.23;70.05;98910.88;5128371;27;20048;-66
2024/01/03 02:59:35;;;;;;;22.30;3.63;;;;;;;11.21;70.08;98919.22;5145817;27;20050;-66
2024/01/03 03:02:03;;;;;;;16.27;4.03;;;;;;;11.24;70.34;98913.28;5151293;27;20145;-66
2024/01/03 03:04:30;;;;;;;17.40;2.72;;;;;;;11.24;69.94;98910.59;5137486;27;20047;-67
2024/01/03 03:06:58;;;;;;;21.40;4.82;;;;;;;11.24;70.49;98921.34;5140062;27;20084;-66
2024/01/03 03:09:26;;;;;;;12.60;2.40;;;;;;;11.22;70.43;98914.63;5134217;27;20045;-66
2024/01/03 03:11:54;;;;;;;15.45;3.63;;;;;;;11.20;70.12;98919.47;5129527;28;20130;-66
2024/01/03 03:14:24;;;;;;;20.23;5.10;;;;;;;11.21;70.16;98924.59;5157161;27;20072;-66
2024/01/03 03:16:52;;;;;;;18.95;4.15;;;;;;;11.20;70.43;98920.28;5151745;27;20047;-66
2024/01/03 03:19:20;;;;;;;17.15;3.90;;;;;;;11.18;70.44;98918.94;5147475;27;20043;-66
2024/01/03 03:21:48;;;;;;;17.25;3.50;;;;;;;11.19;70.33;98920.56;5147332;27;20051;-66
2024/01/03 03:24:16;;;;;;;18.45;3.50;;;;;;;11.19;70.35;98923.25;5149401;27;20436;-66
2024/01/03 03:26:43;;;;;;;21.25;3.67;;;;;;;11.19;70.46;98937.50;5163759;27;20043;-66
2024/01/03 03:29:11;;;;;;;23.23;4.20;;;;;;;11.19;70.65;98925.94;5142264;27;20114;-66
2024/01/03 03:31:40;;;;;;;26.00;4.68;;;;;;;11.18;70.75;98927.81;5155201;27;20087;-66
2024/01/03 03:34:08;;;;;;;19.80;3.40;;;;;;;11.17;70.50;98918.13;5092629;27;20096;-66
2024/01/03 03:36:36;;;;;;;20.52;4.43;;;;;;;11.18;70.70;98940.44;5148483;27;20058;-66
2024/01/03 03:39:07;;;;;;;16.27;3.97;;;;;;;11.18;70.77;98940.44;5147570;27;20048;-66
2024/01/03 03:41:36;;;;;;;22.45;4.60;;;;;;;11.16;71.04;98935.34;5128664;27;20047;-66
2024/01/03 03:44:04;;;;;;;19.35;3.88;;;;;;;11.17;70.84;98936.97;5147898;27;20044;-66
2024/01/03 03:46:32;;;;;;;23.83;4.88;;;;;;;11.16;70.91;98935.34;5155538;27;20050;-66
2024/01/03 03:49:01;;;;;;;22.77;4.30;;;;;;;11.15;70.92;98936.44;5148119;27;20042;-66
2024/01/03 03:51:29;;;;;;;17.30;4.13;;;;;;;11.15;70.95;98936.44;5161885;27;20047;-66
2024/01/03 03:53:57;;;;;;;26.48;3.92;;;;;;;11.15;70.78;98931.06;5152623;27;20085;-67
2024/01/03 03:56:26;;;;;;;20.35;3.83;;;;;;;11.17;70.98;98933.47;5152878;27;20051;-66
2024/01/03 03:58:54;;;;;;;18.25;4.53;;;;;;;11.14;70.87;98918.69;5152621;27;20133;-66
2024/01/03 04:01:22;;;;;;;20.35;3.78;;;;;;;11.17;70.84;98933.47;5135825;27;20051;-67
2024/01/03 04:03:50;;;;;;;24.95;3.92;;;;;;;11.16;70.59;98937.22;5134990;27;20053;-66
2024/01/03 04:06:20;;;;;;;14.65;3.58;;;;;;;11.17;70.77;98936.97;5158706;27;20042;-67
2024/01/03 04:08:48;;;;;;;14.13;2.60;;;;;;;11.16;70.95;98934.53;5131029;27;20051;-66
2024/01/03 04:11:17;;;;;;;15.85;3.50;;;;;;;11.21;70.74;98945.28;5145182;27;20056;-66
2024/01/03 04:13:44;;;;;;;17.48;3.80;;;;;;;11.18;70.62;98943.16;5148707;27;20096;-66
2024/01/03 04:16:12;;;;;;;13.77;3.70;;;;;;;11.14;70.93;98929.44;5141727;27;20047;-66
2024/01/03 04:18:40;;;;;;;15.35;2.60;;;;;;;11.16;70.59;98942.63;5144720;27;20043;-66
2024/01/03 04:21:09;;;;;;;11.30;3.03;;;;;;;11.16;70.77;98948.78;5160326;27;20103;-66
2024/01/03 04:23:38;;;;;;;10.90;2.70;;;;;;;11.14;70.59;98953.63;5162493;27;20039;-66
2024/01/03 04:26:06;;;;;;;17.85;3.20;;;;;;;11.16;70.73;98951.47;5124788;27;20064;-66
2024/01/03 04:28:34;;;;;;;15.05;3.05;;;;;;;11.16;70.70;98948.78;5095712;27;20076;-66
2024/01/03 04:31:01;;;;;;;13.27;2.88;;;;;;;11.14;70.79;98944.75;5126912;28;20058;-66
2024/01/03 04:33:29;;;;;;;12.25;3.22;;;;;;;11.13;70.50;98951.22;5117179;27;20111;-66
2024/01/03 04:35:57;;;;;;;12.13;2.00;;;;;;;11.13;70.20;98954.72;5101855;27;20052;-66
2024/01/03 04:38:25;;;;;;;11.73;2.90;;;;;;;11.13;70.46;98949.34;5153847;27;20121;-65
2024/01/03 04:40:55;;;;;;;12.35;2.40;;;;;;;11.13;70.42;98948.53;5150672;27;20047;-66
2024/01/03 04:43:22;;;;;;;8.68;2.42;;;;;;;11.12;70.14;98950.41;5142708;27;20047;-66
2024/01/03 04:45:50;;;;;;;11.70;2.90;;;;;;;11.10;70.50;98944.50;5160057;27;20043;-66
2024/01/03 04:48:18;;;;;;;10.98;2.30;;;;;;;11.11;70.45;98958.75;5156949;27;20055;-66
2024/01/03 04:50:46;;;;;;;11.52;2.80;;;;;;;11.09;70.13;98954.44;5147108;27;20059;-66
2024/01/03 04:53:14;;;;;;;10.30;2.10;;;;;;;11.09;70.09;98953.66;5160828;27;20099;-66
2024/01/03 04:55:42;;;;;;;9.05;1.75;;;;;;;11.09;70.25;98946.38;5153319;27;20050;-66
2024/01/03 04:58:11;;;;;;;9.93;2.10;;;;;;;11.07;70.25;98945.03;5140661;27;20413;-66
2024/01/03 05:00:39;;;;;;;6.40;1.75;;;;;;;11.07;70.13;98953.91;5142898;27;20054;-67
2024/01/03 05:03:06;;;;;;;11.45;2.35;;;;;;;11.07;69.68;98951.22;5149856;27;20051;-66
2024/01/03 05:05:35;;;;;;;6.07;2.10;;;;;;;11.07;70.02;98945.03;5153051;27;20046;-66
2024/01/03 05:08:03;;;;;;;9.55;2.25;;;;;;;11.05;70.05;98949.88;5130885;27;20092;-66
2024/01/03 05:10:30;;;;;;;6.43;1.85;;;;;;;11.06;70.17;98956.88;5145582;27;20043;-66
2024/01/03 05:12:58;;;;;;;10.00;2.03;;;;;;;11.05;70.07;98955.25;5114465;27;20044;-66
2024/01/03 05:15:27;;;;;;;6.55;1.92;;;;;;;11.04;70.42;98954.47;5133635;27;20095;-66
2024/01/03 05:17:55;;;;;;;5.82;1.80;;;;;;;11.03;70.37;98958.22;5145560;27;20043;-66
2024/01/03 05:20:23;;;;;;;4.45;1.40;;;;;;;11.04;70.55;98945.59;5125842;27;20047;-65
2024/01/03 05:22:51;;;;;;;8.98;1.95;;;;;;;11.02;70.37;98943.16;5153510;27;20483;-65
2024/01/03 05:25:19;;;;;;;8.85;2.42;;;;;;;11.02;70.53;98951.22;5144085;27;20088;-65
2024/01/03 05:27:47;;;;;;;6.15;1.63;;;;;;;10.99;70.79;98940.22;5152153;27;20051;-65
2024/01/03 05:30:15;;;;;;;14.07;2.35;;;;;;;11.00;71.07;98945.31;5150359;27;20050;-66
2024/01/03 05:32:44;;;;;;;11.43;1.83;;;;;;;10.96;71.21;98941.56;5150449;27;20055;-65
2024/01/03 05:35:12;;;;;;;6.45;1.70;;;;;;;10.98;71.03;98957.41;5128606;27;20052;-65
2024/01/03 05:37:40;;;;;;;6.00;1.70;;;;;;;10.99;71.15;98964.41;5145853;27;20058;-65
2024/01/03 05:40:09;;;;;;;11.57;2.28;;;;;;;10.95;71.35;98958.78;5145481;27;20050;-66
2024/01/03 05:42:37;;;;;;;10.43;1.83;;;;;;;10.97;71.44;98978.13;5144602;27;20051;-65
2024/01/03 05:45:05;;;;;;;8.38;2.20;;;;;;;10.97;71.47;98970.06;5132262;27;20059;-65
2024/01/03 05:47:33;;;;;;;7.95;2.60;;;;;;;10.95;71.63;98979.47;5135534;27;20043;-65
2024/01/03 05:50:03;;;;;;;5.85;1.45;;;;;;;10.89;71.64;98957.16;5140448;27;20047;-66
2024/01/03 05:52:30;;;;;;;4.90;1.67;;;;;;;10.94;71.45;98975.97;5140506;27;20053;-66
2024/01/03 05:55:00;;;;;;;5.47;1.80;;;;;;;10.94;71.67;98978.66;5144236;27;20460;-64
2024/01/03 05:57:28;;;;;;;11.18;2.00;;;;;;;10.94;71.74;98972.47;4781119;27;9999711;-66
2024/01/03 05:59:56;;;;;;;8.13;1.70;;;;;;;10.92;71.62;98962.00;5125608;27;20100;-66
2024/01/03 06:02:24;;;;;;;11.27;2.00;;;;;;;10.90;71.72;98950.72;5127215;27;20077;-66
2024/01/03 06:04:52;;;;;;;9.02;1.98;;;;;;;10.90;71.81;98955.28;5093134;27;20046;-66
2024/01/03 06:07:26;;;;;;;8.18;1.73;;;;;;;10.88;71.76;98962.81;5133211;27;20069;-66
2024/01/03 06:09:53;;;;;;;8.20;1.65;;;;;;;10.90;71.93;98960.66;5159021;27;20103;-66
2024/01/03 06:12:21;;;;;;;8.25;2.30;;;;;;;10.90;71.77;98964.16;5158772;27;20047;-66
2024/01/03 06:14:49;;;;;;;6.47;1.98;;;;;;;10.90;71.81;98966.84;5119843;27;20556;-64
2024/01/03 06:17:17;;;;;;;6.88;2.30;;;;;;;10.90;72.12;98958.78;5149669;27;20115;-64
2024/01/03 06:19:45;;;;;;;6.63;1.73;;;;;;;10.84;71.89;98946.41;5130697;27;20168;-65
2024/01/03 06:22:14;;;;;;;15.77;1.90;;;;;;;10.90;71.84;98955.28;5125232;27;20116;-65
2024/01/03 06:24:43;;;;;;;7.32;1.60;;;;;;;10.88;72.23;98958.25;5137787;27;20081;-65
2024/01/03 06:27:11;;;;;;;5.18;1.80;;;;;;;10.88;71.99;98950.19;5126573;27;20072;-65
2024/01/03 06:29:39;;;;;;;10.18;2.40;;;;;;;10.87;72.17;98959.31;5130932;27;20047;-65
2024/01/03 06:32:09;;;;;;;7.07;1.80;;;;;;;10.91;72.19;98951.50;5136881;27;20126;-66
2024/01/03 06:34:37;;;;;;;6.28;1.80;;;;;;;10.89;71.93;98945.59;5135672;27;20039;-65
2024/01/03 06:37:05;;;;;;;6.72;2.33;;;;;;;10.89;72.14;98937.53;5129682;27;20063;-65
2024/01/03 06:39:33;;;;;;;5.68;1.73;;;;;;;10.89;72.02;98942.91;5121348;27;20052;-66
2024/01/03 06:42:02;;;;;;;4.85;1.50;;;;;;;10.89;72.15;98941.03;5134452;27;20043;-66
2024/01/03 06:44:30;;;;;;;5.13;1.63;;;;;;;10.89;72.15;98935.66;5129072;27;20043;-66
2024/01/03 06:46:58;;;;;;;5.65;1.55;;;;;;;10.90;72.18;98949.91;5133006;27;20051;-66
2024/01/03 06:49:25;;;;;;;8.05;1.70;;;;;;;10.87;72.23;98937.81;5128641;27;20047;-65
2024/01/03 06:51:53;;;;;;;5.90;1.65;;;;;;;10.86;72.13;98949.63;5139465;27;20055;-66
2024/01/03 06:54:21;;;;;;;5.63;1.55;;;;;;;10.84;72.01;98972.47;5134654;27;20080;-67
2024/01/03 06:56:48;;;;;;;5.65;1.58;;;;;;;10.83;72.39;98966.31;5139961;27;20043;-67
2024/01/03 06:59:17;;;;;;;8.43;1.50;;;;;;;10.75;72.13;98970.34;5131809;27;20088;-67
2024/01/03 07:01:45;;;;;;;3.88;1.10;;;;;;;10.81;71.92;98979.19;5129462;27;20120;-64
2024/01/03 07:04:13;;;;;;;8.75;2.00;;;;;;;10.82;71.93;98990.75;5145969;27;20055;-66
2024/01/03 07:06:41;;;;;;;2.17;0.85;;;;;;;10.81;71.73;98983.78;5145486;27;20164;-66
2024/01/03 07:09:09;;;;;;;5.75;1.75;;;;;;;10.77;71.94;98994.25;5136357;27;20051;-65
2024/01/03 07:11:37;;;;;;;3.45;1.00;;;;;;;10.81;71.61;99005.25;5132354;27;20047;-67
2024/01/03 07:14:05;;;;;;;3.88;1.05;;;;;;;10.74;71.44;99013.59;5136382;27;20046;-65
2024/01/03 07:16:34;;;;;;;3.72;1.15;;;;;;;10.76;71.72;99014.13;5142848;27;20103;-61
2024/01/03 07:19:02;;;;;;;1.33;0.80;;;;;;;10.77;71.63;99023.81;5115536;27;20053;-66
2024/01/03 07:21:30;;;;;;;3.58;1.13;;;;;;;10.77;71.77;99024.59;5137469;27;20054;-67
2024/01/03 07:23:58;;;;;;;2.80;1.00;;;;;;;10.76;71.56;99025.69;5144868;27;20643;-68
2024/01/03 07:26:27;;;;;;;2.50;0.85;;;;;;;10.75;71.46;99024.06;5157165;27;20050;-66
2024/01/03 07:28:55;;;;;;;2.80;1.10;;;;;;;10.75;71.63;99023.25;5147339;27;20046;-63
2024/01/03 07:31:22;;;;;;;2.05;0.90;;;;;;;10.74;71.67;99025.16;5127403;27;20110;-66
2024/01/03 07:33:51;;;;;;;2.33;0.85;;;;;;;10.73;71.55;99025.41;5108946;27;20128;-64
2024/01/03 07:36:20;;;;;;;2.72;1.00;;;;;;;10.76;71.66;99030.25;5111071;27;20130;-65
2024/01/03 07:38:48;;;;;;;5.57;1.40;;;;;;;10.76;71.66;99033.75;5096185;27;20109;-65
2024/01/03 07:41:19;;;;;;;1.85;0.85;;;;;;;10.74;71.82;99030.53;5121411;27;20136;-65
2024/01/03 07:43:47;;;;;;;2.08;0.68;;;;;;;10.73;71.68;99034.28;5108814;27;20616;-65
2024/01/03 07:46:16;;;;;;;3.45;0.82;;;;;;;10.71;71.37;99038.31;5089106;27;20049;-65
2024/01/03 07:48:44;;;;;;;4.82;1.05;;;;;;;10.71;71.68;99032.94;5095544;27;20101;-65
2024/01/03 07:51:13;;;;;;;1.95;0.80;;;;;;;10.72;71.67;99034.53;5091274;27;20198;-67
2024/01/03 07:53:41;;;;;;;2.60;0.88;;;;;;;10.68;71.72;99038.84;5118477;27;20374;-66
2024/01/03 07:56:10;;;;;;;5.38;1.20;;;;;;;10.71;71.37;99041.00;5132384;27;20051;-67
2024/01/03 07:58:37;;;;;;;2.75;0.85;;;;;;;10.71;71.71;99044.47;5133073;27;20043;-65
2024/01/03 08:01:05;;;;;;;1.98;1.00;;;;;;;10.73;71.58;99042.34;5137676;27;20091;-64
2024/01/03 08:03:33;;;;;;;4.97;0.98;;;;;;;10.76;71.69;99038.31;5133590;27;20103;-65
2024/01/03 08:06:01;;;;;;;3.55;0.90;;;;;;;10.72;71.54;99046.09;5133850;27;20058;-64
2024/01/03 08:08:34;;;;;;;5.93;1.60;;;;;;;10.70;71.59;99034.00;5133851;27;20051;-64
2024/01/03 08:11:02;;;;;;;5.50;1.70;;;;;;;10.71;71.61;99038.31;5130144;27;20059;-64
2024/01/03 08:13:30;;;;;;;1.63;0.70;;;;;;;10.78;71.54;99041.53;5126055;27;20050;-62
2024/01/03 08:15:58;;;;;;;2.22;0.90;;;;;;;10.75;71.44;99042.06;5127250;27;20046;-64
2024/01/03 08:18:26;;;;;;;2.97;1.15;;;;;;;10.73;71.73;99046.91;5088843;27;20053;-64
2024/01/03 08:20:54;;;;;;;6.90;1.52;;;;;;;10.71;71.61;99049.06;5116635;27;20054;-64
2024/01/03 08:23:22;;;;;;;4.68;1.02;;;;;;;10.71;71.58;99054.44;5126000;27;20107;-66
2024/01/03 08:25:51;;;;;;;6.50;1.20;;;;;;;10.69;71.58;99046.63;5117562;27;20047;-66
2024/01/03 08:28:19;;;;;;;6.30;1.23;;;;;;;10.69;71.64;99052.00;5123317;27;20057;-66
2024/01/03 08:30:47;;;;;;;6.47;1.33;;;;;;;10.66;71.87;99054.41;5110190;27;20094;-67
2024/01/03 08:33:15;;;;;;;6.13;2.05;;;;;;;10.71;71.78;99057.13;5113438;27;20860;-64
2024/01/03 08:35:43;;;;;;;7.00;1.65;;;;;;;10.69;71.80;99059.25;5102849;27;20120;-64
2024/01/03 08:38:11;;;;;;;5.78;1.80;;;;;;;10.69;71.77;99057.38;5126296;27;20083;-64
2024/01/03 08:40:39;;;;;;;4.57;1.40;;;;;;;10.70;71.58;99058.19;5126022;27;20061;-65
2024/01/03 08:43:08;;;;;;;9.85;1.73;;;;;;;10.71;71.87;99071.34;5110096;27;20108;-65
2024/01/03 08:45:36;;;;;;;11.05;1.85;;;;;;;10.75;71.88;99064.38;5115959;27;20097;-66
2024/01/03 08:48:05;;;;;;;6.07;1.35;;;;;;;10.74;71.62;99059.25;5124601;27;20069;-65
2024/01/03 08:50:34;;;;;;;5.43;1.40;;;;;;;10.72;71.61;99062.22;5103082;27;20055;-65
2024/01/03 08:53:02;;;;;;;10.95;2.60;;;;;;;10.72;71.62;99072.97;5138724;27;20096;-65
2024/01/03 08:55:29;;;;;;;13.80;3.15;;;;;;;10.70;71.51;99069.75;5119527;27;20112;-65
2024/01/03 08:57:58;;;;;;;14.23;3.10;;;;;;;10.72;71.48;99080.22;5123310;27;20107;-65
2024/01/03 09:00:27;;;;;;;14.00;2.13;;;;;;;10.71;71.49;99075.91;5126339;27;20089;-65
2024/01/03 09:02:57;;;;;;;15.15;2.58;;;;;;;10.76;71.57;99086.69;5116320;27;20051;-65
2024/01/03 09:05:25;;;;;;;14.73;2.67;;;;;;;10.88;71.31;99083.75;5130226;27;20051;-66
2024/01/03 09:07:53;;;;;;;17.05;2.45;;;;;;;11.03;70.44;99076.50;5121545;27;20276;-65
2024/01/03 09:10:20;;;;;;;16.77;3.47;;;;;;;11.18;70.03;99078.38;5130517;27;20072;-65
2024/01/03 09:12:48;;;;;;;14.30;2.53;;;;;;;11.38;69.47;99077.56;5121649;27;20131;-66
2024/01/03 09:15:16;;;;;;;10.80;2.78;;;;;;;11.55;69.01;99071.91;5122816;27;20127;-66
2024/01/03 09:17:45;;;;;;;11.20;2.15;;;;;;;11.73;68.73;99072.13;5118461;27;20065;-64
2024/01/03 09:20:13;;;;;;;15.73;3.28;;;;;;;11.89;67.66;99075.63;5137632;27;20055;-68
2024/01/03 09:22:41;;;;;;;11.57;2.60;;;;;;;12.11;67.22;99077.19;5109214;27;20070;-64
2024/01/03 09:25:10;;;;;;;13.93;4.32;;;;;;;12.22;66.11;99086.81;5104404;27;20084;-66
2024/01/03 09:27:38;;;;;;;14.90;2.50;;;;;;;12.41;65.67;99081.59;5127324;27;20039;-65
2024/01/03 09:30:07;;;;;;;10.82;3.30;;;;;;;12.47;64.87;99078.59;5130003;27;20401;-65
2024/01/03 09:32:35;;;;;;;13.50;2.97;;;;;;;12.58;65.31;99093.63;5118387;27;20047;-66
2024/01/03 09:35:05;;;;;;;9.07;2.28;;;;;;;12.66;64.67;99076.88;5125649;27;20046;-65
2024/01/03 09:37:33;;;;;;;15.55;3.35;;;;;;;12.68;64.76;99095.47;5128336;27;20041;-65
2024/01/03 09:40:01;;;;;;;14.02;2.70;;;;;;;12.68;64.61;99090.88;5137110;27;20050;-65
2024/01/03 09:42:30;;;;;;;9.70;2.90;;;;;;;12.66;64.79;99089.56;5132675;27;20050;-66
2024/01/03 09:44:58;;;;;;;17.00;3.42;;;;;;;12.57;64.71;99099.31;5119770;27;20048;-66
2024/01/03 09:47:26;;;;;;;15.48;3.55;;;;;;;12.47;65.19;99091.28;5091901;27;20045;-66
2024/01/03 09:49:54;;;;;;;15.95;3.75;;;;;;;12.24;65.61;99098.91;5136429;27;20142;-66
2024/01/03 09:52:24;;;;;;;18.38;4.28;;;;;;;12.02;66.56;99101.16;5144181;27;20065;-67
2024/01/03 09:54:51;;;;;;;11.75;2.42;;;;;;;11.90;67.38;99092.59;5145212;27;20054;-66
2024/01/03 09:57:20;;;;;;;14.50;2.92;;;;;;;11.74;67.72;99100.66;5138896;27;20062;-67
2024/01/03 09:59:48;;;;;;;17.73;3.08;;;;;;;11.72;68.26;99110.91;5135549;27;20043;-65
2024/01/03 10:02:16;;;;;;;14.90;3.15;;;;;;;11.70;68.41;99104.97;5142206;27;20047;-66
2024/01/03 10:04:45;;;;;;;17.30;4.25;;;;;;;11.62;68.67;99113.59;5124376;27;20117;-65
2024/01/03 10:07:13;;;;;;;20.08;3.95;;;;;;;11.58;68.63;99106.34;5136575;27;20130;-65
2024/01/03 10:09:44;;;;;;;15.43;4.03;;;;;;;11.51;69.14;99120.06;5143753;27;20047;-66
2024/01/03 10:12:17;;;;;;;14.98;3.67;;;;;;;11.52;69.10;99124.38;5129047;27;20156;-67
2024/01/03 10:14:45;;;;;;;19.08;3.22;;;;;;;11.46;69.40;99117.38;5101003;27;20058;-67
2024/01/03 10:17:14;;;;;;;14.32;3.33;;;;;;;11.43;69.58;99117.91;5129609;27;20425;-67
2024/01/03 10:19:41;;;;;;;18.92;3.25;;;;;;;11.37;69.46;99121.69;5125777;27;20049;-67
2024/01/03 10:22:10;;;;;;;22.48;4.60;;;;;;;11.33;69.60;99132.16;5139572;27;20043;-67
2024/01/03 10:24:43;;;;;;;19.73;3.50;;;;;;;11.37;69.89;99135.13;5117380;27;20405;-67
2024/01/03 10:27:12;;;;;;;12.65;3.10;;;;;;;11.40;69.18;99132.72;5116968;27;20466;-68
2024/01/03 10:29:40;;;;;;;10.23;2.55;;;;;;;11.36;70.07;99125.44;5111323;27;20059;-67
2024/01/03 10:32:10;;;;;;;11.68;3.45;;;;;;;11.40;69.44;99126.53;5117908;27;20554;-68
2024/01/03 10:34:38;;;;;;;17.58;3.45;;;;;;;11.34;69.56;99130.28;5130834;27;20047;-68
2024/01/03 10:37:08;;;;;;;16.65;3.40;;;;;;;11.33;69.95;99131.38;5110486;27;20039;-67
2024/01/03 10:39:37;;;;;;;21.67;4.43;;;;;;;11.30;69.88;99134.59;5131841;27;20051;-65
2024/01/03 10:42:08;;;;;;;17.73;3.33;;;;;;;11.26;70.14;99139.69;5118503;27;20298;-66
2024/01/03 10:44:37;;;;;;;13.93;3.20;;;;;;;11.22;70.17;99146.69;5101311;27;20060;-67
2024/01/03 10:47:05;;;;;;;10.20;2.83;;;;;;;11.19;70.07;99136.47;5109935;27;20053;-67
2024/01/03 10:49:33;;;;;;;22.70;3.58;;;;;;;11.20;70.32;99138.09;5099120;27;20050;-66
2024/01/03 10:52:03;;;;;;;12.60;2.80;;;;;;;11.20;70.42;99146.16;5131212;27;20065;-66
2024/01/03 10:54:41;;;;;;;24.33;3.78;;;;;;;11.23;70.35;99144.81;5136570;27;20039;-66
2024/01/03 10:57:12;;;;;;;13.02;3.13;;;;;;;11.22;70.67;99129.75;4753156;27;9999757;-69
2024/01/03 10:59:51;;;;;;;15.68;4.03;;;;;;;11.22;70.45;99137.81;5136555;28;20096;-68
2024/01/03 11:02:25;;;;;;;18.77;2.92;;;;;;;11.23;70.51;99142.13;5103534;27;20107;-68
2024/01/03 11:04:58;;;;;;;13.50;3.53;;;;;;;11.36;69.99;99126.25;5116276;27;20047;-68
2024/01/03 11:07:32;;;;;;;17.67;3.25;;;;;;;11.35;70.01;99121.16;5121506;27;20061;-69
2024/01/03 11:10:00;;;;;;;17.60;3.53;;;;;;;11.50;69.84;99114.97;5104070;27;20068;-70
2024/01/03 11:12:29;;;;;;;17.05;3.35;;;;;;;11.62;69.53;99115.47;5085943;27;20060;-73
2024/01/03 11:15:24;;;;;;;13.93;3.80;;;;;;;11.81;68.68;99113.88;5122236;27;20043;-73
2024/01/03 11:18:05;;;;;;;16.65;3.35;;;;;;;12.13;67.94;99121.59;5118231;27;20044;-69
2024/01/03 11:20:33;;;;;;;18.02;4.20;;;;;;;12.30;67.15;99122.06;5126418;27;20457;-70
2024/01/03 11:23:02;;;;;;;18.92;4.78;;;;;;;12.33;66.94;99126.88;5111175;27;21525;-71
2024/01/03 11:25:49;;;;;;;13.13;3.38;;;;;;;12.29;66.86;99127.72;5108705;27;20103;-71
2024/01/03 11:28:35;;;;;;;17.40;3.50;;;;;;;12.20;67.66;99127.47;5132034;27;20043;-70
2024/01/03 11:31:04;;;;;;;13.93;2.97;;;;;;;12.16;67.82;99136.38;5126550;28;20043;-70
2024/01/03 11:33:32;;;;;;;13.43;3.55;;;;;;;12.01;67.79;99132.66;5118916;28;20085;-68
2024/01/03 11:36:01;;;;;;;14.10;3.05;;;;;;;11.99;68.38;99134.03;5113905;27;20065;-72